createdAt,value
2022-11-05T00:01:45.359Z,60.42
2022-11-05T00:04:31.320Z,55.88
2022-11-05T00:07:19.681Z,48.60
2022-11-05T00:09:47.237Z,52.70
2022-11-05T00:12:33.223Z,53.55
2022-11-05T00:15:19.424Z,52.58
2022-11-05T00:17:46.696Z,50.97
2022-11-05T00:20:13.855Z,54.20
2022-11-05T00:22:59.750Z,49.80
2022-11-05T00:25:29.800Z,51.25
2022-11-05T00:28:00.856Z,44.17
2022-11-05T00:30:28.207Z,48.17
2022-11-05T00:32:55.348Z,47.85
2022-11-05T00:35:23.252Z,45.60
2022-11-05T00:37:50.842Z,49.42
2022-11-05T00:40:18.134Z,49.42
2022-11-05T00:43:04.517Z,53.28
2022-11-05T00:45:31.876Z,47.78
2022-11-05T00:48:17.635Z,52.83
2022-11-05T00:50:44.752Z,56.35
2022-11-05T00:53:12.166Z,57.47
2022-11-05T00:55:48.520Z,54.42
2022-11-05T00:58:17.021Z,49.30
2022-11-05T01:00:45.770Z,52.60
2022-11-05T01:03:14.206Z,53.05
2022-11-05T01:05:43.419Z,54.83
2022-11-05T01:08:11.103Z,52.75
2022-11-05T01:10:42.315Z,53.28
2022-11-05T01:13:12.913Z,52.30
2022-11-05T01:15:40.902Z,53.47
2022-11-05T01:18:08.386Z,50.75
2022-11-05T01:20:35.589Z,52.20
2022-11-05T01:23:02.927Z,50.28
2022-11-05T01:25:30.302Z,52.42
2022-11-05T01:27:57.428Z,50.60
2022-11-05T01:30:24.540Z,50.88
2022-11-05T01:32:51.755Z,53.60
2022-11-05T01:35:19.084Z,57.40
2022-11-05T01:37:46.697Z,48.97
2022-11-05T01:40:15.602Z,54.03
2022-11-05T01:42:42.889Z,51.15
2022-11-05T01:45:16.456Z,50.35
2022-11-05T01:48:02.229Z,55.47
2022-11-05T01:50:29.472Z,53.13
2022-11-05T01:53:00.650Z,52.88
2022-11-05T01:55:29.234Z,51.85
2022-11-05T01:57:58.308Z,56.78
2022-11-05T02:00:25.536Z,52.67
2022-11-05T02:02:52.854Z,53.08
2022-11-05T02:05:20.097Z,51.13
2022-11-05T02:07:47.891Z,47.15
2022-11-05T02:10:15.872Z,46.90
2022-11-05T02:12:44.434Z,53.58
2022-11-05T02:15:12.642Z,45.47
2022-11-05T02:17:49.090Z,51.55
2022-11-05T02:20:16.174Z,49.70
2022-11-05T02:23:02.312Z,41.28
2022-11-05T02:25:35.693Z,45.25
2022-11-05T02:28:05.620Z,45.47
2022-11-05T02:30:32.724Z,53.53
2022-11-05T02:33:18.409Z,50.47
2022-11-05T02:36:02.952Z,58.30
2022-11-05T02:38:36.327Z,60.35
2022-11-05T02:41:15.219Z,61.13
2022-11-05T02:43:42.397Z,62.10
2022-11-05T02:46:31.362Z,64.35
2022-11-05T02:49:01.444Z,59.45
2022-11-05T02:51:33.687Z,52.65
2022-11-05T02:54:13.522Z,46.45
2022-11-05T02:56:42.558Z,47.75
2022-11-05T02:59:09.784Z,51.97
2022-11-05T03:01:37.748Z,41.20
2022-11-05T03:04:07.498Z,46.83
2022-11-05T03:06:40.915Z,45.53
2022-11-05T03:09:10.751Z,39.83
2022-11-05T03:11:47.884Z,42.97
2022-11-05T03:14:33.855Z,39.97
2022-11-05T03:17:06.497Z,41.15
2022-11-05T03:19:50.469Z,40.60
2022-11-05T03:22:29.529Z,39.63
2022-11-05T03:24:58.962Z,44.15
2022-11-05T03:27:32.007Z,43.92
2022-11-05T03:30:04.964Z,39.65
2022-11-05T03:32:33.680Z,42.47
2022-11-05T03:35:02.906Z,37.72
2022-11-05T03:37:32.637Z,45.38
2022-11-05T03:40:01.199Z,48.97
2022-11-05T03:42:30.652Z,49.58
2022-11-05T03:44:59.442Z,48.67
2022-11-05T03:47:29.244Z,59.22
2022-11-05T03:49:59.918Z,55.72
2022-11-05T03:52:29.814Z,61.40
2022-11-05T03:54:57.154Z,56.50
2022-11-05T03:57:32.283Z,56.60
2022-11-05T03:59:59.447Z,57.53
2022-11-05T04:02:27.631Z,55.70
2022-11-05T04:04:55.036Z,47.05
2022-11-05T04:07:41.136Z,52.92
2022-11-05T04:10:27.403Z,54.15
2022-11-05T04:13:13.556Z,47.40
2022-11-05T04:15:59.596Z,47.25
2022-11-05T04:18:26.727Z,57.13
2022-11-05T04:21:12.622Z,52.03
2022-11-05T04:24:00.032Z,57.13
2022-11-05T04:26:27.204Z,54.22
2022-11-05T04:29:13.093Z,58.20
2022-11-05T04:31:40.294Z,56.55
2022-11-05T04:34:07.410Z,54.97
2022-11-05T04:36:34.575Z,50.35
2022-11-05T04:39:01.737Z,55.63
2022-11-05T04:41:28.909Z,48.95
2022-11-05T04:43:56.030Z,45.70
2022-11-05T04:46:23.188Z,53.38
2022-11-05T04:48:50.361Z,53.00
2022-11-05T04:51:17.474Z,51.45
2022-11-05T04:53:44.686Z,47.40
2022-11-05T04:56:22.266Z,49.78
2022-11-05T04:58:49.619Z,56.17
2022-11-05T05:01:18.363Z,53.88
2022-11-05T05:03:47.230Z,61.55
2022-11-05T05:06:14.413Z,63.88
2022-11-05T05:08:41.527Z,68.13
2022-11-05T05:11:09.831Z,84.07
2022-11-05T05:13:37.220Z,64.47
2022-11-05T05:16:08.482Z,65.05
2022-11-05T05:21:21.896Z,56.67
2022-11-05T05:23:49.185Z,60.03
2022-11-05T05:26:17.017Z,67.05
2022-11-05T05:28:44.348Z,62.83
2022-11-05T05:31:11.543Z,75.95
2022-11-05T05:33:38.687Z,68.15
2022-11-05T05:36:11.099Z,66.65
2022-11-05T05:38:38.719Z,77.88
2022-11-05T05:41:05.975Z,69.20
2022-11-05T05:43:33.837Z,63.22
2022-11-05T05:46:04.844Z,65.25
2022-11-05T05:48:32.427Z,55.30
2022-11-05T05:51:07.175Z,51.55
2022-11-05T05:53:34.598Z,47.95
2022-11-05T05:56:01.868Z,48.58
2022-11-05T05:58:32.541Z,40.15
2022-11-05T06:01:03.938Z,46.67
2022-11-05T06:03:31.255Z,38.85
2022-11-05T06:06:05.508Z,41.65
2022-11-05T06:08:32.636Z,40.03
2022-11-05T06:11:00.846Z,38.50
2022-11-05T06:13:28.195Z,40.05
2022-11-05T06:16:00.208Z,51.70
2022-11-05T06:18:27.357Z,49.33
2022-11-05T06:20:56.018Z,55.50
2022-11-05T06:23:23.134Z,52.13
2022-11-05T06:25:50.298Z,51.47
2022-11-05T06:28:17.547Z,49.40
2022-11-05T06:30:50.557Z,53.38
2022-11-05T06:33:17.722Z,47.88
2022-11-05T06:35:44.883Z,47.88
2022-11-05T06:38:12.031Z,48.20
2022-11-05T06:40:39.211Z,49.33
2022-11-05T06:43:06.340Z,44.13
2022-11-05T06:45:33.507Z,50.65
2022-11-05T06:48:00.750Z,49.28
2022-11-05T06:50:28.756Z,46.00
2022-11-05T06:53:00.463Z,38.15
2022-11-05T06:55:28.986Z,48.40
2022-11-05T06:57:56.303Z,46.13
2022-11-05T07:00:24.065Z,45.80
2022-11-05T07:02:51.301Z,44.35
2022-11-05T07:05:18.450Z,44.88
2022-11-05T07:07:45.843Z,42.20
2022-11-05T07:10:14.282Z,43.28
2022-11-05T07:12:41.551Z,42.60
2022-11-05T07:15:09.060Z,39.03
2022-11-05T07:17:36.277Z,42.35
2022-11-05T07:20:03.881Z,43.03
2022-11-05T07:22:31.107Z,40.30
2022-11-05T07:24:58.398Z,41.55
2022-11-05T07:27:25.602Z,42.60
2022-11-05T07:29:52.755Z,37.70
2022-11-05T07:32:20.043Z,40.97
2022-11-05T07:34:47.206Z,40.80
2022-11-05T07:37:16.630Z,36.20
2022-11-05T07:39:43.815Z,40.53
2022-11-05T07:42:14.452Z,37.20
2022-11-05T07:44:41.686Z,39.47
2022-11-05T07:47:08.937Z,39.05
2022-11-05T07:49:36.075Z,40.88
2022-11-05T07:52:03.236Z,39.92
2022-11-05T07:54:30.510Z,38.60
2022-11-05T07:56:57.633Z,52.20
2022-11-05T07:59:24.768Z,52.58
2022-11-05T08:01:52.220Z,53.78
2022-11-05T08:04:19.544Z,55.78
2022-11-05T08:06:46.636Z,55.83
2022-11-05T08:09:13.834Z,66.53
2022-11-05T08:11:40.939Z,61.33
2022-11-05T08:14:08.077Z,66.35
2022-11-05T08:16:35.239Z,52.80
2022-11-05T08:19:02.359Z,53.70
2022-11-05T08:21:29.475Z,56.30
2022-11-05T08:23:56.638Z,54.63
2022-11-05T08:26:23.768Z,59.65
2022-11-05T08:28:50.886Z,52.03
2022-11-05T08:31:18.243Z,57.95
2022-11-05T08:33:45.396Z,59.33
2022-11-05T08:36:12.582Z,49.25
2022-11-05T08:38:39.775Z,41.72
2022-11-05T08:41:06.924Z,43.45
2022-11-05T08:43:34.120Z,49.60
2022-11-05T08:46:02.561Z,45.40
2022-11-05T08:48:29.765Z,47.60
2022-11-05T08:50:56.877Z,44.17
2022-11-05T08:53:24.213Z,48.10
2022-11-05T08:55:51.603Z,51.65
2022-11-05T08:58:20.730Z,51.50
2022-11-05T09:00:49.383Z,48.53
2022-11-05T09:03:16.843Z,47.63
2022-11-05T09:05:44.076Z,49.53
2022-11-05T09:08:12.791Z,52.13
2022-11-05T09:10:40.378Z,58.53
2022-11-05T09:13:09.630Z,50.38
2022-11-05T09:15:41.161Z,55.80
2022-11-05T09:18:10.345Z,56.20
2022-11-05T09:20:39.578Z,55.63
2022-11-05T09:23:07.998Z,49.17
2022-11-05T09:25:35.400Z,49.38
2022-11-05T09:28:11.385Z,51.70
2022-11-05T09:30:41.587Z,52.53
2022-11-05T09:33:09.208Z,48.42
2022-11-05T09:35:38.847Z,43.63
2022-11-05T09:38:06.200Z,52.80
2022-11-05T09:40:36.472Z,49.08
2022-11-05T09:43:04.317Z,47.03
2022-11-05T09:45:32.676Z,49.72
2022-11-05T09:48:01.766Z,49.70
2022-11-05T09:50:34.635Z,52.08
2022-11-05T09:53:02.253Z,48.97
2022-11-05T09:55:29.401Z,45.00
2022-11-05T09:58:00.853Z,42.22
2022-11-05T10:00:28.581Z,44.00
2022-11-05T10:02:58.026Z,41.95
2022-11-05T10:05:26.329Z,54.88
2022-11-05T10:07:56.222Z,46.92
2022-11-05T10:10:29.385Z,42.90
2022-11-05T10:13:16.732Z,39.58
2022-11-05T10:15:53.876Z,42.25
2022-11-05T10:18:25.344Z,41.75
2022-11-05T10:20:52.635Z,43.22
2022-11-05T10:23:20.747Z,39.50
2022-11-05T10:26:09.232Z,44.42
2022-11-05T10:28:36.892Z,42.78
2022-11-05T10:31:08.891Z,43.17
2022-11-05T10:33:40.483Z,39.78
2022-11-05T10:36:10.091Z,40.88
2022-11-05T10:38:37.390Z,41.28
2022-11-05T10:41:13.847Z,39.70
2022-11-05T10:43:45.439Z,42.95
2022-11-05T10:46:12.588Z,41.88
2022-11-05T10:48:48.635Z,38.78
2022-11-05T10:51:15.920Z,35.60
2022-11-05T10:53:49.390Z,39.35
2022-11-05T10:56:36.855Z,38.15
2022-11-05T10:59:10.972Z,43.28
2022-11-05T11:01:39.414Z,46.13
2022-11-05T11:04:08.707Z,38.80
2022-11-05T11:06:39.078Z,37.50
2022-11-05T11:09:07.437Z,38.53
2022-11-05T11:11:35.788Z,43.38
2022-11-05T11:14:12.165Z,45.60
2022-11-05T11:16:43.602Z,40.30
2022-11-05T11:19:29.218Z,39.30
2022-11-05T11:22:05.579Z,36.13
2022-11-05T11:24:38.176Z,57.17
2022-11-05T11:27:07.432Z,65.13
2022-11-05T11:29:40.517Z,35.17
2022-11-05T11:32:13.329Z,40.22
2022-11-05T11:34:41.714Z,36.70
2022-11-05T11:37:19.568Z,37.17
2022-11-05T11:39:49.730Z,36.38
2022-11-05T11:42:23.107Z,39.20
2022-11-05T11:44:50.948Z,31.83
2022-11-05T11:47:19.484Z,36.92
2022-11-05T11:49:48.081Z,37.13
2022-11-05T11:52:16.920Z,34.75
2022-11-05T11:54:44.038Z,36.63
2022-11-05T11:57:25.181Z,39.85
2022-11-05T12:00:09.681Z,49.45
2022-11-05T12:03:12.134Z,41.70
2022-11-05T12:05:42.200Z,38.60
2022-11-05T12:08:17.411Z,39.95
2022-11-05T12:10:49.383Z,39.28
2022-11-05T12:13:19.876Z,35.70
2022-11-05T12:15:46.986Z,42.35
2022-11-05T12:18:16.917Z,43.70
2022-11-05T12:21:03.308Z,42.58
2022-11-05T12:23:30.411Z,43.80
2022-11-05T12:25:57.504Z,43.10
2022-11-05T12:28:27.595Z,40.88
2022-11-05T12:30:59.310Z,40.42
2022-11-05T12:33:42.279Z,43.67
2022-11-05T12:36:21.868Z,51.30
2022-11-05T12:39:15.372Z,47.58
2022-11-05T12:41:54.570Z,51.65
2022-11-05T12:44:21.779Z,56.95
2022-11-05T12:46:54.606Z,51.88
2022-11-05T12:49:43.218Z,47.38
2022-11-05T12:52:10.309Z,50.72
2022-11-05T12:54:43.814Z,52.22
2022-11-05T12:57:14.791Z,56.03
2022-11-05T13:00:08.525Z,53.97
2022-11-05T13:02:35.751Z,55.28
2022-11-05T13:05:07.763Z,53.47
2022-11-05T13:07:36.789Z,63.65
2022-11-05T13:10:03.879Z,49.47
2022-11-05T13:12:32.734Z,46.70
2022-11-05T13:15:26.496Z,49.70
2022-11-05T13:17:56.045Z,47.17
2022-11-05T13:20:25.461Z,54.65
2022-11-05T13:23:07.257Z,44.90
2022-11-05T13:25:38.296Z,49.67
2022-11-05T13:28:17.299Z,45.45
2022-11-05T13:30:46.690Z,50.47
2022-11-05T13:33:20.465Z,47.88
2022-11-05T13:36:11.835Z,44.47
2022-11-05T13:38:59.748Z,52.28
2022-11-05T13:41:29.854Z,47.08
2022-11-05T13:43:59.895Z,46.72
2022-11-05T13:46:32.772Z,43.33
2022-11-05T13:49:11.495Z,42.35
2022-11-05T13:51:49.739Z,37.00
2022-11-05T13:54:35.033Z,34.90
2022-11-05T13:57:13.664Z,38.58
2022-11-05T13:59:40.898Z,41.40
2022-11-05T14:02:15.816Z,42.83
2022-11-05T14:04:47.040Z,39.60
2022-11-05T14:07:25.496Z,37.33
2022-11-05T14:10:03.201Z,36.28
2022-11-05T14:12:32.378Z,41.83
2022-11-05T14:15:02.117Z,36.38
2022-11-05T14:17:32.323Z,40.05
2022-11-05T14:20:05.597Z,45.30
2022-11-05T14:22:32.763Z,37.05
2022-11-05T14:25:19.865Z,36.53
2022-11-05T14:27:48.573Z,37.08
2022-11-05T14:30:38.582Z,39.75
2022-11-05T14:33:30.649Z,42.40
2022-11-05T14:36:16.327Z,36.65
2022-11-05T14:38:47.992Z,36.63
2022-11-05T14:41:15.283Z,41.92
2022-11-05T14:43:47.516Z,40.88
2022-11-05T14:46:14.900Z,52.28
2022-11-05T14:48:42.103Z,52.97
2022-11-05T14:51:29.451Z,50.55
2022-11-05T14:54:23.174Z,56.95
2022-11-05T14:57:00.445Z,48.17
2022-11-05T14:59:36.357Z,49.40
2022-11-05T15:02:16.132Z,48.30
2022-11-05T15:04:45.555Z,50.50
2022-11-05T15:07:14.847Z,54.72
2022-11-05T15:09:43.637Z,59.35
2022-11-05T15:12:11.383Z,48.97
2022-11-05T15:14:42.394Z,47.03
2022-11-05T15:17:15.086Z,48.05
2022-11-05T15:19:42.941Z,48.83
2022-11-05T15:22:30.632Z,48.03
2022-11-05T15:24:57.921Z,49.15
2022-11-05T15:27:33.856Z,42.10
2022-11-05T15:30:05.797Z,47.33
2022-11-05T15:32:38.327Z,40.65
2022-11-05T15:35:18.141Z,42.90
2022-11-05T15:37:54.687Z,36.72
2022-11-05T15:40:27.965Z,38.83
2022-11-05T15:43:30.366Z,41.60
2022-11-05T15:46:05.124Z,44.30
2022-11-05T15:48:32.812Z,51.55
2022-11-05T15:51:00.356Z,49.67
2022-11-05T15:53:51.537Z,51.55
2022-11-05T15:56:25.596Z,49.72
2022-11-05T15:59:03.124Z,52.28
2022-11-05T16:01:32.959Z,51.78
2022-11-05T16:04:07.174Z,64.53
2022-11-05T16:06:38.295Z,56.55
2022-11-05T16:09:05.963Z,56.08
2022-11-05T16:11:33.229Z,59.42
2022-11-05T16:14:17.311Z,63.65
2022-11-05T16:16:45.143Z,64.53
2022-11-05T16:19:48.112Z,62.00
2022-11-05T16:22:15.690Z,64.68
2022-11-05T16:24:43.189Z,72.03
2022-11-05T16:27:28.522Z,69.15
2022-11-05T16:29:57.174Z,67.78
2022-11-05T16:32:30.820Z,71.22
2022-11-05T16:35:00.175Z,72.15
2022-11-05T16:37:27.763Z,81.72
2022-11-05T16:39:55.031Z,74.60
2022-11-05T16:42:23.746Z,70.72
2022-11-05T16:44:51.665Z,77.03
2022-11-05T16:47:19.349Z,96.38
2022-11-05T16:49:48.158Z,80.80
2022-11-05T16:52:15.733Z,82.18
2022-11-05T16:54:42.943Z,92.40
2022-11-05T16:57:21.731Z,109.10
2022-11-05T16:59:48.922Z,109.82
2022-11-05T17:02:16.236Z,101.50
2022-11-05T17:04:43.750Z,99.32
2022-11-05T17:07:10.935Z,93.18
2022-11-05T17:09:38.085Z,101.20
2022-11-05T17:12:05.545Z,105.05
2022-11-05T17:14:32.871Z,97.53
2022-11-05T17:17:02.946Z,101.93
2022-11-05T17:19:30.183Z,92.30
2022-11-05T17:21:57.375Z,89.32
2022-11-05T17:24:24.651Z,91.47
2022-11-05T17:26:51.999Z,89.28
2022-11-05T17:29:19.172Z,83.70
2022-11-05T17:31:46.341Z,86.78
2022-11-05T17:34:13.637Z,70.72
2022-11-05T17:36:40.810Z,79.50
2022-11-05T17:39:08.297Z,65.50
2022-11-05T17:41:35.584Z,64.60
2022-11-05T17:44:02.840Z,62.30
2022-11-05T17:46:30.014Z,58.55
2022-11-05T17:48:57.279Z,71.97
2022-11-05T17:51:24.492Z,79.03
2022-11-05T17:53:51.741Z,65.63
2022-11-05T17:56:32.095Z,69.93
2022-11-05T17:59:01.321Z,64.07
2022-11-05T18:01:30.149Z,58.35
2022-11-05T18:03:57.414Z,67.22
2022-11-05T18:06:24.605Z,72.03
2022-11-05T18:08:51.998Z,59.38
2022-11-05T18:11:19.330Z,55.65
2022-11-05T18:13:47.107Z,59.67
2022-11-05T18:16:14.363Z,58.95
2022-11-05T18:18:42.151Z,55.90
2022-11-05T18:21:09.421Z,59.53
2022-11-05T18:23:36.715Z,65.03
2022-11-05T18:26:09.082Z,61.10
2022-11-05T18:28:36.841Z,60.42
2022-11-05T18:31:04.978Z,56.97
2022-11-05T18:33:38.614Z,54.85
2022-11-05T18:38:32.826Z,51.78
2022-11-05T18:41:05.716Z,50.30
2022-11-05T18:43:32.868Z,47.97
2022-11-05T18:46:00.024Z,51.45
2022-11-05T18:48:27.574Z,58.05
2022-11-05T18:51:00.651Z,59.95
2022-11-05T18:53:29.067Z,60.15
2022-11-05T18:55:56.240Z,44.60
2022-11-05T18:58:23.384Z,52.85
2022-11-05T19:00:50.716Z,55.70
2022-11-05T19:03:17.868Z,46.75
2022-11-05T19:05:45.043Z,55.42
2022-11-05T19:08:12.455Z,47.83
2022-11-05T19:10:40.947Z,56.35
2022-11-05T19:13:08.096Z,54.40
2022-11-05T19:15:35.301Z,58.67
2022-11-05T19:18:02.556Z,53.00
2022-11-05T19:20:32.469Z,49.25
2022-11-05T19:23:04.023Z,59.88
2022-11-05T19:25:31.217Z,53.00
2022-11-05T19:27:58.728Z,53.17
2022-11-05T19:30:26.800Z,57.45
2022-11-05T19:32:54.016Z,54.67
2022-11-05T19:35:21.250Z,53.83
2022-11-05T19:37:50.328Z,55.25
2022-11-05T19:40:17.552Z,53.80
2022-11-05T19:42:44.718Z,47.72
2022-11-05T19:45:38.360Z,53.90
2022-11-05T19:47:59.365Z,57.33
2022-11-05T19:50:26.741Z,54.70
2022-11-05T19:52:53.960Z,51.33
2022-11-05T19:55:21.145Z,53.40
2022-11-05T19:57:48.530Z,50.15
2022-11-05T20:00:15.950Z,59.00
2022-11-05T20:02:44.730Z,58.13
2022-11-05T20:05:12.640Z,61.03
2022-11-05T20:07:40.023Z,56.92
2022-11-05T20:10:08.316Z,56.83
2022-11-05T20:12:35.985Z,56.67
2022-11-05T20:15:04.303Z,57.67
2022-11-05T20:17:31.486Z,50.42
2022-11-05T20:19:58.732Z,53.17
2022-11-05T20:22:25.863Z,53.70
2022-11-05T20:24:53.019Z,61.70
2022-11-05T20:27:20.329Z,62.13
2022-11-05T20:29:47.472Z,61.55
2022-11-05T20:32:14.857Z,52.75
2022-11-05T20:34:42.164Z,54.45
2022-11-05T20:37:09.308Z,56.40
2022-11-05T20:39:37.592Z,49.55
2022-11-05T20:42:05.011Z,61.58
2022-11-05T20:44:32.230Z,57.88
2022-11-05T20:46:59.388Z,59.90
2022-11-05T20:49:26.704Z,56.47
2022-11-05T20:51:54.167Z,60.45
2022-11-05T20:54:21.531Z,63.40
2022-11-05T20:56:48.753Z,56.83
2022-11-05T20:59:15.915Z,65.18
2022-11-05T21:01:43.843Z,61.15
2022-11-05T21:04:11.219Z,56.85
2022-11-05T21:06:41.328Z,77.15
2022-11-05T21:09:08.473Z,65.43
2022-11-05T21:11:54.675Z,65.80
2022-11-05T21:14:21.860Z,63.47
2022-11-05T21:16:49.028Z,56.50
2022-11-05T21:19:16.339Z,68.25
2022-11-05T21:21:43.496Z,65.88
2022-11-05T21:24:10.612Z,62.47
2022-11-05T21:26:37.794Z,62.60
2022-11-05T21:29:04.959Z,57.60
2022-11-05T21:31:32.077Z,61.40
2022-11-05T21:33:59.295Z,64.28
2022-11-05T21:36:26.410Z,65.57
2022-11-05T21:38:53.531Z,70.22
2022-11-05T21:41:20.800Z,71.03
2022-11-05T21:43:47.933Z,59.50
2022-11-05T21:46:15.121Z,65.57
2022-11-05T21:48:42.379Z,65.18
2022-11-05T21:51:29.387Z,65.45
2022-11-05T21:54:15.637Z,67.30
2022-11-05T21:57:05.885Z,60.78
2022-11-05T21:59:55.244Z,61.70
2022-11-05T22:02:23.693Z,71.15
2022-11-05T22:04:51.996Z,68.38
2022-11-05T22:07:21.167Z,75.15
2022-11-05T22:09:48.319Z,67.60
2022-11-05T22:12:15.711Z,65.15
2022-11-05T22:14:43.258Z,70.75
2022-11-05T22:17:10.993Z,67.45
2022-11-05T22:19:38.324Z,59.20
2022-11-05T22:22:06.211Z,65.55
2022-11-05T22:24:34.385Z,73.20
2022-11-05T22:27:02.699Z,71.85
2022-11-05T22:29:29.931Z,76.30
2022-11-05T22:31:57.226Z,76.93
2022-11-05T22:34:24.913Z,53.90
2022-11-05T22:36:52.392Z,62.97
2022-11-05T22:39:19.921Z,60.83
2022-11-05T22:41:47.457Z,75.20
2022-11-05T22:44:16.674Z,69.72
2022-11-05T22:46:43.946Z,64.80
2022-11-05T22:49:11.209Z,64.75
2022-11-05T22:51:39.319Z,70.15
2022-11-05T22:54:07.139Z,65.80
2022-11-05T22:56:36.589Z,67.50
2022-11-05T22:59:04.328Z,67.50
2022-11-05T23:01:31.701Z,66.10
2022-11-05T23:03:59.748Z,66.22
2022-11-05T23:06:49.850Z,65.47
2022-11-05T23:09:37.095Z,64.95
2022-11-05T23:12:05.575Z,64.53
2022-11-05T23:14:32.826Z,66.00
2022-11-05T23:17:19.248Z,66.60
2022-11-05T23:20:05.216Z,66.07
2022-11-05T23:22:51.279Z,62.70
2022-11-05T23:25:20.013Z,59.50
2022-11-05T23:27:48.650Z,68.50
2022-11-05T23:30:18.028Z,64.25
2022-11-05T23:32:45.412Z,68.35
2022-11-05T23:35:12.827Z,62.30
2022-11-05T23:37:59.032Z,59.72
2022-11-05T23:40:28.300Z,66.15
2022-11-05T23:43:14.177Z,65.45
2022-11-05T23:45:57.511Z,58.83
2022-11-05T23:48:30.518Z,67.78
2022-11-05T23:50:59.406Z,69.03
2022-11-05T23:53:26.805Z,61.75
2022-11-05T23:55:54.019Z,70.50
2022-11-05T23:58:21.165Z,62.92
